Aeroporto :
LOGIN :

Iscrizione | Disclaimer

   EN    FR    IT 

 










Sommario :    VFR   VFR Marginale   IFR   IFR Intensivo   IFR Molto Intensivo
Visibilità : 
Base nubi : 
>= 8 km
>= 3000ft
5 / 8 km
1000 / 3000 ft
1500m / 5 km
500 / 1000 ft
800 / 1500m
200 / 500 ft
< 800m
< 200 ft
Simboli :   Temporali  Nebbia  Neve Forte  Precipitazioni Forti  Vento > 20 kt
SIGMETs :   Varie  Temporali  Ghiacco  Turbolenza  Onda orograficha  Ceneri Vulcaniche







- Altitudine del aeroporto : 299 ft
- Codice IATA : EDM
- Carte del aeroporto


LFRI - La Roche Sur Yon - Les Ajoncs

ULTIMO METAR :
  • 210200Z AUTO 00000KT 0750 0500 R28/1400D FG NSC 15/14 Q1021

METARs OBSOLETI :
  • 210130Z AUTO 25002KT 6000 0900 R28/P2000 BCFG NSC 15/14 Q1021
  • 210100Z AUTO 25001KT 1800 0900 R28/P2000 BCFG NSC 14/14 Q1021
  • 210030Z AUTO 24002KT CAVOK 15/15 Q1021
  • 210000Z AUTO 24003KT CAVOK 16/15 Q1021
  • 202330Z AUTO 23003KT CAVOK 16/15 Q1021

TAF TAF LFRI
Valido dal 20 a 18 ore il 21 a 18 ore UTC


201700Z 2018/2118 26009KT 9999 SCT030
BECMG 2100/2103 VRB03KT
TEMPO 2103/2106 3000 BR BKN003
PROB30
TEMPO 2103/2106 0800 BCFG
BECMG 2116/2118 29010KT
Nessun NOTAM noto per questo aeroporto.



MetMap, La meteo Aeronautica in un colpo d'occhio ! - Copyright ORBIFLY Dicembre 2007 - Disclaimer

ORBIFLY MET'MAP TEAM :

Programmazione e sviluppo : Alexandra Zaïnal
Concezione e sviluppo : Baudouin d'Aumeries
Co-Programmazione e sviluppo : Marc-Olivier Méhu
Supporto tecnico e logistico : Manuel Goepfert
Aiuto per la traduzione : Arnaldo La Scala

Contatto : metmap@orbifly.com




FONTI E CREDITI :

   NOAA